sensor_id;sensor_type;location;lat;lon;timestamp;P1;durP1;ratioP1;P2;durP2;ratioP2
32872;SDS011;19224;52.462;16.898;2022-08-06T00:01:20;7.92;;;5.05;;
32872;SDS011;19224;52.462;16.898;2022-08-06T00:03:50;4.83;;;4.33;;
32872;SDS011;19224;52.462;16.898;2022-08-06T00:06:21;7.42;;;4.28;;
32872;SDS011;19224;52.462;16.898;2022-08-06T00:08:50;8.30;;;4.22;;
32872;SDS011;19224;52.462;16.898;2022-08-06T00:11:21;4.95;;;3.95;;
32872;SDS011;19224;52.462;16.898;2022-08-06T00:13:51;5.95;;;3.90;;
32872;SDS011;19224;52.462;16.898;2022-08-06T00:16:21;5.83;;;3.95;;
32872;SDS011;19224;52.462;16.898;2022-08-06T00:18:51;4.30;;;3.65;;
32872;SDS011;19224;52.462;16.898;2022-08-06T00:21:21;8.25;;;3.65;;
32872;SDS011;19224;52.462;16.898;2022-08-06T00:23:51;5.47;;;3.83;;
32872;SDS011;19224;52.462;16.898;2022-08-06T00:26:21;4.80;;;3.33;;
32872;SDS011;19224;52.462;16.898;2022-08-06T00:28:51;6.87;;;3.10;;
32872;SDS011;19224;52.462;16.898;2022-08-06T00:31:21;5.03;;;2.80;;
32872;SDS011;19224;52.462;16.898;2022-08-06T00:33:51;5.60;;;2.72;;
32872;SDS011;19224;52.462;16.898;2022-08-06T00:36:26;4.97;;;2.83;;
32872;SDS011;19224;52.462;16.898;2022-08-06T00:38:58;4.58;;;2.70;;
32872;SDS011;19224;52.462;16.898;2022-08-06T00:41:31;5.60;;;2.92;;
32872;SDS011;19224;52.462;16.898;2022-08-06T00:44:01;5.25;;;2.85;;
32872;SDS011;19224;52.462;16.898;2022-08-06T00:46:33;2.42;;;2.17;;
32872;SDS011;19224;52.462;16.898;2022-08-06T00:49:03;2.65;;;2.02;;
32872;SDS011;19224;52.462;16.898;2022-08-06T00:51:34;3.95;;;1.75;;
32872;SDS011;19224;52.462;16.898;2022-08-06T00:54:04;4.75;;;1.95;;
32872;SDS011;19224;52.462;16.898;2022-08-06T00:56:34;3.72;;;1.60;;
32872;SDS011;19224;52.462;16.898;2022-08-06T00:59:04;2.05;;;1.62;;
32872;SDS011;19224;52.462;16.898;2022-08-06T01:01:34;2.27;;;1.50;;
32872;SDS011;19224;52.462;16.898;2022-08-06T01:04:04;2.10;;;1.20;;
32872;SDS011;19224;52.462;16.898;2022-08-06T01:06:35;2.52;;;1.50;;
32872;SDS011;19224;52.462;16.898;2022-08-06T01:09:06;2.00;;;1.40;;
32872;SDS011;19224;52.462;16.898;2022-08-06T01:11:38;3.67;;;1.37;;
32872;SDS011;19224;52.462;16.898;2022-08-06T01:14:09;1.65;;;1.37;;
32872;SDS011;19224;52.462;16.898;2022-08-06T01:16:54;6.72;;;1.65;;
32872;SDS011;19224;52.462;16.898;2022-08-06T01:19:45;1.50;;;1.30;;
32872;SDS011;19224;52.462;16.898;2022-08-06T01:22:32;2.67;;;1.50;;
32872;SDS011;19224;52.462;16.898;2022-08-06T01:25:41;2.98;;;1.57;;
32872;SDS011;19224;52.462;16.898;2022-08-06T01:31:28;3.55;;;1.15;;
32872;SDS011;19224;52.462;16.898;2022-08-06T01:34:03;3.17;;;1.40;;
32872;SDS011;19224;52.462;16.898;2022-08-06T01:36:42;3.30;;;1.82;;
32872;SDS011;19224;52.462;16.898;2022-08-06T01:39:15;3.22;;;1.10;;
32872;SDS011;19224;52.462;16.898;2022-08-06T01:41:49;3.65;;;1.10;;
32872;SDS011;19224;52.462;16.898;2022-08-06T01:44:23;1.67;;;0.98;;
32872;SDS011;19224;52.462;16.898;2022-08-06T01:47:06;2.75;;;0.88;;
32872;SDS011;19224;52.462;16.898;2022-08-06T01:49:39;2.27;;;1.10;;
32872;SDS011;19224;52.462;16.898;2022-08-06T01:52:12;4.70;;;1.30;;
32872;SDS011;19224;52.462;16.898;2022-08-06T01:54:45;3.00;;;1.05;;
32872;SDS011;19224;52.462;16.898;2022-08-06T01:57:18;4.58;;;1.55;;
32872;SDS011;19224;52.462;16.898;2022-08-06T01:59:51;3.22;;;1.30;;
32872;SDS011;19224;52.462;16.898;2022-08-06T02:02:24;3.62;;;1.02;;
32872;SDS011;19224;52.462;16.898;2022-08-06T02:04:58;2.10;;;1.10;;
32872;SDS011;19224;52.462;16.898;2022-08-06T02:07:34;4.42;;;1.02;;
32872;SDS011;19224;52.462;16.898;2022-08-06T02:10:05;2.15;;;1.15;;
32872;SDS011;19224;52.462;16.898;2022-08-06T02:12:36;3.58;;;1.07;;
32872;SDS011;19224;52.462;16.898;2022-08-06T02:15:15;2.30;;;0.90;;
32872;SDS011;19224;52.462;16.898;2022-08-06T02:17:49;1.10;;;0.98;;
32872;SDS011;19224;52.462;16.898;2022-08-06T02:20:27;3.35;;;1.22;;
32872;SDS011;19224;52.462;16.898;2022-08-06T02:22:56;3.00;;;1.20;;
32872;SDS011;19224;52.462;16.898;2022-08-06T02:25:30;3.85;;;1.10;;
32872;SDS011;19224;52.462;16.898;2022-08-06T02:28:02;4.20;;;1.40;;
32872;SDS011;19224;52.462;16.898;2022-08-06T02:30:38;3.67;;;1.10;;
32872;SDS011;19224;52.462;16.898;2022-08-06T02:33:13;3.27;;;1.47;;
32872;SDS011;19224;52.462;16.898;2022-08-06T02:35:46;3.60;;;1.30;;
32872;SDS011;19224;52.462;16.898;2022-08-06T02:38:31;5.25;;;1.20;;
32872;SDS011;19224;52.462;16.898;2022-08-06T02:41:15;4.37;;;1.15;;
32872;SDS011;19224;52.462;16.898;2022-08-06T02:44:09;3.65;;;1.00;;
32872;SDS011;19224;52.462;16.898;2022-08-06T02:47:04;3.45;;;1.62;;
32872;SDS011;19224;52.462;16.898;2022-08-06T02:50:05;2.58;;;1.15;;
32872;SDS011;19224;52.462;16.898;2022-08-06T02:52:39;4.00;;;1.20;;
32872;SDS011;19224;52.462;16.898;2022-08-06T02:55:18;3.65;;;1.27;;
32872;SDS011;19224;52.462;16.898;2022-08-06T02:57:57;3.77;;;1.45;;
32872;SDS011;19224;52.462;16.898;2022-08-06T03:00:26;3.72;;;1.32;;
32872;SDS011;19224;52.462;16.898;2022-08-06T03:02:58;2.27;;;1.45;;
32872;SDS011;19224;52.462;16.898;2022-08-06T03:05:30;2.47;;;1.30;;
32872;SDS011;19224;52.462;16.898;2022-08-06T03:08:04;4.33;;;1.40;;
32872;SDS011;19224;52.462;16.898;2022-08-06T03:10:36;3.12;;;1.27;;
32872;SDS011;19224;52.462;16.898;2022-08-06T03:13:09;2.25;;;1.32;;
32872;SDS011;19224;52.462;16.898;2022-08-06T03:15:41;3.72;;;1.50;;
32872;SDS011;19224;52.462;16.898;2022-08-06T03:18:12;4.33;;;1.40;;
32872;SDS011;19224;52.462;16.898;2022-08-06T03:20:45;5.50;;;1.60;;
32872;SDS011;19224;52.462;16.898;2022-08-06T03:23:16;1.82;;;1.27;;
32872;SDS011;19224;52.462;16.898;2022-08-06T03:25:48;3.52;;;1.40;;
32872;SDS011;19224;52.462;16.898;2022-08-06T03:28:18;3.40;;;1.50;;
32872;SDS011;19224;52.462;16.898;2022-08-06T03:30:50;2.95;;;1.80;;
32872;SDS011;19224;52.462;16.898;2022-08-06T03:33:22;2.83;;;1.50;;
32872;SDS011;19224;52.462;16.898;2022-08-06T03:35:53;3.40;;;1.85;;
32872;SDS011;19224;52.462;16.898;2022-08-06T03:38:27;3.40;;;1.65;;
32872;SDS011;19224;52.462;16.898;2022-08-06T03:41:01;2.98;;;1.30;;
32872;SDS011;19224;52.462;16.898;2022-08-06T03:43:31;4.53;;;1.50;;
32872;SDS011;19224;52.462;16.898;2022-08-06T03:46:04;1.87;;;1.30;;
32872;SDS011;19224;52.462;16.898;2022-08-06T03:48:38;3.65;;;1.60;;
32872;SDS011;19224;52.462;16.898;2022-08-06T03:51:11;1.87;;;1.30;;
32872;SDS011;19224;52.462;16.898;2022-08-06T03:53:45;3.42;;;1.47;;
32872;SDS011;19224;52.462;16.898;2022-08-06T03:56:22;2.65;;;1.45;;
32872;SDS011;19224;52.462;16.898;2022-08-06T03:58:54;3.35;;;1.60;;
32872;SDS011;19224;52.462;16.898;2022-08-06T04:01:29;2.95;;;1.55;;
32872;SDS011;19224;52.462;16.898;2022-08-06T04:04:07;2.30;;;1.62;;
32872;SDS011;19224;52.462;16.898;2022-08-06T04:06:38;1.82;;;1.42;;
32872;SDS011;19224;52.462;16.898;2022-08-06T04:09:10;2.02;;;1.37;;
32872;SDS011;19224;52.462;16.898;2022-08-06T04:11:42;6.28;;;1.70;;
32872;SDS011;19224;52.462;16.898;2022-08-06T04:14:14;4.95;;;1.80;;
32872;SDS011;19224;52.462;16.898;2022-08-06T04:16:45;3.92;;;1.50;;
32872;SDS011;19224;52.462;16.898;2022-08-06T04:19:16;4.37;;;2.00;;
32872;SDS011;19224;52.462;16.898;2022-08-06T04:21:48;3.47;;;1.40;;
32872;SDS011;19224;52.462;16.898;2022-08-06T04:24:18;2.42;;;1.70;;
32872;SDS011;19224;52.462;16.898;2022-08-06T04:26:50;5.10;;;2.12;;
32872;SDS011;19224;52.462;16.898;2022-08-06T04:29:22;1.62;;;1.52;;
32872;SDS011;19224;52.462;16.898;2022-08-06T04:31:53;2.87;;;1.90;;
32872;SDS011;19224;52.462;16.898;2022-08-06T04:34:25;6.42;;;1.60;;
32872;SDS011;19224;52.462;16.898;2022-08-06T04:36:58;2.85;;;1.70;;
32872;SDS011;19224;52.462;16.898;2022-08-06T04:39:29;2.95;;;1.65;;
32872;SDS011;19224;52.462;16.898;2022-08-06T04:42:01;2.40;;;1.60;;
32872;SDS011;19224;52.462;16.898;2022-08-06T04:44:31;1.32;;;1.12;;
32872;SDS011;19224;52.462;16.898;2022-08-06T04:47:04;2.77;;;1.50;;
32872;SDS011;19224;52.462;16.898;2022-08-06T04:49:34;2.87;;;1.20;;
32872;SDS011;19224;52.462;16.898;2022-08-06T04:52:04;2.15;;;1.20;;
32872;SDS011;19224;52.462;16.898;2022-08-06T04:54:34;2.62;;;1.10;;
32872;SDS011;19224;52.462;16.898;2022-08-06T04:57:05;2.45;;;1.52;;
32872;SDS011;19224;52.462;16.898;2022-08-06T04:59:35;3.12;;;1.52;;
32872;SDS011;19224;52.462;16.898;2022-08-06T05:02:05;5.47;;;1.60;;
32872;SDS011;19224;52.462;16.898;2022-08-06T05:04:35;3.55;;;2.00;;
32872;SDS011;19224;52.462;16.898;2022-08-06T05:07:19;3.85;;;2.33;;
32872;SDS011;19224;52.462;16.898;2022-08-06T05:09:58;7.47;;;2.30;;
32872;SDS011;19224;52.462;16.898;2022-08-06T05:15:21;8.75;;;3.80;;
32872;SDS011;19224;52.462;16.898;2022-08-06T05:18:06;6.72;;;3.60;;
32872;SDS011;19224;52.462;16.898;2022-08-06T05:20:53;8.28;;;5.20;;
32872;SDS011;19224;52.462;16.898;2022-08-06T05:23:32;11.93;;;5.25;;
32872;SDS011;19224;52.462;16.898;2022-08-06T05:26:09;11.78;;;6.17;;
32872;SDS011;19224;52.462;16.898;2022-08-06T05:28:40;10.88;;;6.72;;
32872;SDS011;19224;52.462;16.898;2022-08-06T05:31:11;11.22;;;6.92;;
32872;SDS011;19224;52.462;16.898;2022-08-06T05:33:41;13.72;;;6.20;;
32872;SDS011;19224;52.462;16.898;2022-08-06T05:36:12;18.37;;;6.42;;
32872;SDS011;19224;52.462;16.898;2022-08-06T05:38:42;9.50;;;6.10;;
32872;SDS011;19224;52.462;16.898;2022-08-06T05:41:12;8.10;;;6.28;;
32872;SDS011;19224;52.462;16.898;2022-08-06T05:43:41;10.00;;;6.58;;
32872;SDS011;19224;52.462;16.898;2022-08-06T05:46:14;11.12;;;6.10;;
32872;SDS011;19224;52.462;16.898;2022-08-06T05:51:58;8.73;;;5.87;;
32872;SDS011;19224;52.462;16.898;2022-08-06T05:54:55;9.55;;;5.90;;
32872;SDS011;19224;52.462;16.898;2022-08-06T05:57:39;10.68;;;6.10;;
32872;SDS011;19224;52.462;16.898;2022-08-06T06:00:30;9.03;;;6.22;;
32872;SDS011;19224;52.462;16.898;2022-08-06T06:03:04;11.68;;;6.00;;
32872;SDS011;19224;52.462;16.898;2022-08-06T06:05:37;9.00;;;5.97;;
32872;SDS011;19224;52.462;16.898;2022-08-06T06:08:08;16.35;;;7.00;;
32872;SDS011;19224;52.462;16.898;2022-08-06T06:10:39;8.20;;;5.90;;
32872;SDS011;19224;52.462;16.898;2022-08-06T06:13:12;11.33;;;6.00;;
32872;SDS011;19224;52.462;16.898;2022-08-06T06:15:46;10.28;;;5.83;;
32872;SDS011;19224;52.462;16.898;2022-08-06T06:24:16;9.40;;;4.90;;
32872;SDS011;19224;52.462;16.898;2022-08-06T06:27:07;9.05;;;5.25;;
32872;SDS011;19224;52.462;16.898;2022-08-06T06:32:35;7.83;;;4.12;;
32872;SDS011;19224;52.462;16.898;2022-08-06T06:35:23;6.28;;;4.37;;
32872;SDS011;19224;52.462;16.898;2022-08-06T06:38:14;8.53;;;3.58;;
32872;SDS011;19224;52.462;16.898;2022-08-06T06:41:32;7.55;;;3.55;;
32872;SDS011;19224;52.462;16.898;2022-08-06T06:44:09;9.60;;;4.03;;
32872;SDS011;19224;52.462;16.898;2022-08-06T06:47:03;6.78;;;3.65;;
32872;SDS011;19224;52.462;16.898;2022-08-06T06:49:56;5.75;;;3.72;;
32872;SDS011;19224;52.462;16.898;2022-08-06T06:52:35;5.65;;;3.77;;
32872;SDS011;19224;52.462;16.898;2022-08-06T06:55:12;8.45;;;3.80;;
32872;SDS011;19224;52.462;16.898;2022-08-06T06:58:07;7.62;;;3.50;;
32872;SDS011;19224;52.462;16.898;2022-08-06T07:00:59;5.03;;;3.70;;
32872;SDS011;19224;52.462;16.898;2022-08-06T07:03:32;7.75;;;3.67;;
32872;SDS011;19224;52.462;16.898;2022-08-06T07:06:05;8.38;;;3.77;;
32872;SDS011;19224;52.462;16.898;2022-08-06T07:08:40;7.05;;;3.47;;
32872;SDS011;19224;52.462;16.898;2022-08-06T07:11:18;4.92;;;2.05;;
32872;SDS011;19224;52.462;16.898;2022-08-06T07:14:10;4.10;;;2.15;;
32872;SDS011;19224;52.462;16.898;2022-08-06T07:16:42;7.10;;;3.37;;
32872;SDS011;19224;52.462;16.898;2022-08-06T07:19:14;3.00;;;2.10;;
32872;SDS011;19224;52.462;16.898;2022-08-06T07:21:47;6.12;;;3.02;;
32872;SDS011;19224;52.462;16.898;2022-08-06T07:24:18;4.15;;;2.40;;
32872;SDS011;19224;52.462;16.898;2022-08-06T07:26:52;4.28;;;2.80;;
32872;SDS011;19224;52.462;16.898;2022-08-06T07:29:24;4.00;;;2.65;;
32872;SDS011;19224;52.462;16.898;2022-08-06T07:31:56;8.73;;;2.60;;
32872;SDS011;19224;52.462;16.898;2022-08-06T07:34:28;2.90;;;2.60;;
32872;SDS011;19224;52.462;16.898;2022-08-06T07:37:00;4.67;;;2.42;;
32872;SDS011;19224;52.462;16.898;2022-08-06T07:39:33;4.85;;;3.00;;
32872;SDS011;19224;52.462;16.898;2022-08-06T07:42:07;4.53;;;2.95;;
32872;SDS011;19224;52.462;16.898;2022-08-06T07:44:44;8.25;;;3.35;;
32872;SDS011;19224;52.462;16.898;2022-08-06T07:47:19;5.20;;;3.60;;
32872;SDS011;19224;52.462;16.898;2022-08-06T07:49:57;5.08;;;4.35;;
32872;SDS011;19224;52.462;16.898;2022-08-06T07:52:29;8.25;;;4.92;;
32872;SDS011;19224;52.462;16.898;2022-08-06T07:55:00;10.88;;;5.10;;
32872;SDS011;19224;52.462;16.898;2022-08-06T07:57:30;8.43;;;5.58;;
32872;SDS011;19224;52.462;16.898;2022-08-06T08:00:03;11.75;;;5.92;;
32872;SDS011;19224;52.462;16.898;2022-08-06T08:02:35;11.68;;;5.20;;
32872;SDS011;19224;52.462;16.898;2022-08-06T08:05:06;9.20;;;4.83;;
32872;SDS011;19224;52.462;16.898;2022-08-06T08:07:55;8.40;;;4.72;;
32872;SDS011;19224;52.462;16.898;2022-08-06T08:10:25;7.05;;;4.80;;
32872;SDS011;19224;52.462;16.898;2022-08-06T08:12:56;6.25;;;4.25;;
32872;SDS011;19224;52.462;16.898;2022-08-06T08:15:27;6.87;;;4.58;;
32872;SDS011;19224;52.462;16.898;2022-08-06T08:17:59;6.05;;;3.98;;
32872;SDS011;19224;52.462;16.898;2022-08-06T08:20:29;6.90;;;4.60;;
32872;SDS011;19224;52.462;16.898;2022-08-06T08:23:03;8.38;;;4.47;;
32872;SDS011;19224;52.462;16.898;2022-08-06T08:25:34;8.15;;;4.90;;
32872;SDS011;19224;52.462;16.898;2022-08-06T08:28:05;12.93;;;6.15;;
32872;SDS011;19224;52.462;16.898;2022-08-06T08:30:37;7.22;;;4.65;;
32872;SDS011;19224;52.462;16.898;2022-08-06T08:33:08;10.45;;;4.83;;
32872;SDS011;19224;52.462;16.898;2022-08-06T08:35:39;6.83;;;4.62;;
32872;SDS011;19224;52.462;16.898;2022-08-06T08:38:09;8.50;;;5.00;;
32872;SDS011;19224;52.462;16.898;2022-08-06T08:40:40;14.33;;;5.20;;
32872;SDS011;19224;52.462;16.898;2022-08-06T08:43:12;6.70;;;3.90;;
32872;SDS011;19224;52.462;16.898;2022-08-06T08:45:47;7.03;;;3.65;;
32872;SDS011;19224;52.462;16.898;2022-08-06T08:48:20;10.03;;;4.47;;
32872;SDS011;19224;52.462;16.898;2022-08-06T08:50:59;6.55;;;3.20;;
32872;SDS011;19224;52.462;16.898;2022-08-06T08:53:31;6.10;;;3.30;;
32872;SDS011;19224;52.462;16.898;2022-08-06T08:56:06;5.47;;;3.02;;
32872;SDS011;19224;52.462;16.898;2022-08-06T08:58:44;6.05;;;3.58;;
32872;SDS011;19224;52.462;16.898;2022-08-06T09:01:10;8.30;;;3.35;;
32872;SDS011;19224;52.462;16.898;2022-08-06T09:03:41;5.25;;;3.47;;
32872;SDS011;19224;52.462;16.898;2022-08-06T09:06:12;7.00;;;3.45;;
32872;SDS011;19224;52.462;16.898;2022-08-06T09:08:43;7.83;;;4.05;;
32872;SDS011;19224;52.462;16.898;2022-08-06T09:11:15;5.28;;;3.75;;
32872;SDS011;19224;52.462;16.898;2022-08-06T09:13:45;6.83;;;3.90;;
32872;SDS011;19224;52.462;16.898;2022-08-06T09:16:15;5.17;;;3.45;;
32872;SDS011;19224;52.462;16.898;2022-08-06T09:18:45;5.55;;;3.50;;
32872;SDS011;19224;52.462;16.898;2022-08-06T09:21:16;4.70;;;3.30;;
32872;SDS011;19224;52.462;16.898;2022-08-06T09:23:47;5.12;;;3.58;;
32872;SDS011;19224;52.462;16.898;2022-08-06T09:26:17;6.95;;;3.72;;
32872;SDS011;19224;52.462;16.898;2022-08-06T09:28:47;6.95;;;3.52;;
32872;SDS011;19224;52.462;16.898;2022-08-06T09:31:18;5.22;;;3.30;;
32872;SDS011;19224;52.462;16.898;2022-08-06T09:33:53;6.65;;;3.75;;
32872;SDS011;19224;52.462;16.898;2022-08-06T09:36:41;7.12;;;3.25;;
32872;SDS011;19224;52.462;16.898;2022-08-06T09:39:13;6.60;;;3.83;;
32872;SDS011;19224;52.462;16.898;2022-08-06T09:41:47;5.72;;;4.05;;
32872;SDS011;19224;52.462;16.898;2022-08-06T09:44:20;6.60;;;3.67;;
32872;SDS011;19224;52.462;16.898;2022-08-06T09:46:50;5.45;;;3.90;;
32872;SDS011;19224;52.462;16.898;2022-08-06T09:49:21;6.37;;;3.98;;
32872;SDS011;19224;52.462;16.898;2022-08-06T09:51:51;3.60;;;3.25;;
32872;SDS011;19224;52.462;16.898;2022-08-06T09:54:41;4.92;;;3.08;;
32872;SDS011;19224;52.462;16.898;2022-08-06T09:57:11;6.12;;;3.80;;
32872;SDS011;19224;52.462;16.898;2022-08-06T09:59:42;4.45;;;3.40;;
32872;SDS011;19224;52.462;16.898;2022-08-06T10:02:17;5.37;;;3.30;;
32872;SDS011;19224;52.462;16.898;2022-08-06T10:04:49;6.08;;;3.17;;
32872;SDS011;19224;52.462;16.898;2022-08-06T10:07:28;5.78;;;3.67;;
32872;SDS011;19224;52.462;16.898;2022-08-06T10:10:00;5.08;;;3.90;;
32872;SDS011;19224;52.462;16.898;2022-08-06T10:12:30;6.90;;;3.65;;
32872;SDS011;19224;52.462;16.898;2022-08-06T10:15:00;5.65;;;3.20;;
32872;SDS011;19224;52.462;16.898;2022-08-06T10:17:30;13.25;;;4.20;;
32872;SDS011;19224;52.462;16.898;2022-08-06T10:20:05;4.50;;;3.30;;
32872;SDS011;19224;52.462;16.898;2022-08-06T10:22:50;5.87;;;3.47;;
32872;SDS011;19224;52.462;16.898;2022-08-06T10:25:24;6.42;;;3.52;;
32872;SDS011;19224;52.462;16.898;2022-08-06T10:28:00;8.03;;;2.50;;
32872;SDS011;19224;52.462;16.898;2022-08-06T10:30:30;2.83;;;1.80;;
32872;SDS011;19224;52.462;16.898;2022-08-06T10:33:07;3.02;;;1.60;;
32872;SDS011;19224;52.462;16.898;2022-08-06T10:35:40;6.28;;;1.50;;
32872;SDS011;19224;52.462;16.898;2022-08-06T10:38:14;3.15;;;1.90;;
32872;SDS011;19224;52.462;16.898;2022-08-06T10:40:48;4.30;;;1.87;;
32872;SDS011;19224;52.462;16.898;2022-08-06T10:43:22;2.45;;;1.95;;
32872;SDS011;19224;52.462;16.898;2022-08-06T10:45:54;2.00;;;1.85;;
32872;SDS011;19224;52.462;16.898;2022-08-06T10:48:24;2.37;;;1.95;;
32872;SDS011;19224;52.462;16.898;2022-08-06T10:50:55;4.17;;;2.22;;
32872;SDS011;19224;52.462;16.898;2022-08-06T10:53:25;4.25;;;2.00;;
32872;SDS011;19224;52.462;16.898;2022-08-06T10:55:56;4.97;;;2.10;;
32872;SDS011;19224;52.462;16.898;2022-08-06T10:58:30;4.72;;;2.02;;
32872;SDS011;19224;52.462;16.898;2022-08-06T11:01:04;3.60;;;1.77;;
32872;SDS011;19224;52.462;16.898;2022-08-06T11:04:12;5.33;;;2.08;;
32872;SDS011;19224;52.462;16.898;2022-08-06T11:07:10;2.70;;;2.00;;
32872;SDS011;19224;52.462;16.898;2022-08-06T11:15:50;3.77;;;1.60;;
32872;SDS011;19224;52.462;16.898;2022-08-06T11:18:22;2.42;;;1.72;;
32872;SDS011;19224;52.462;16.898;2022-08-06T11:20:53;1.70;;;1.50;;
32872;SDS011;19224;52.462;16.898;2022-08-06T11:23:29;6.50;;;1.60;;
32872;SDS011;19224;52.462;16.898;2022-08-06T11:26:01;5.70;;;2.42;;
32872;SDS011;19224;52.462;16.898;2022-08-06T11:31:07;2.12;;;1.40;;
32872;SDS011;19224;52.462;16.898;2022-08-06T11:36:24;3.35;;;1.05;;
32872;SDS011;19224;52.462;16.898;2022-08-06T11:38:57;1.75;;;1.15;;
32872;SDS011;19224;52.462;16.898;2022-08-06T11:41:29;3.42;;;1.10;;
32872;SDS011;19224;52.462;16.898;2022-08-06T11:44:04;4.62;;;0.93;;
32872;SDS011;19224;52.462;16.898;2022-08-06T11:46:35;1.20;;;0.70;;
32872;SDS011;19224;52.462;16.898;2022-08-06T11:49:18;1.02;;;0.70;;
32872;SDS011;19224;52.462;16.898;2022-08-06T11:51:55;0.80;;;0.62;;
32872;SDS011;19224;52.462;16.898;2022-08-06T12:13:57;1.20;;;0.50;;
32872;SDS011;19224;52.462;16.898;2022-08-06T12:16:28;1.85;;;0.80;;
32872;SDS011;19224;52.462;16.898;2022-08-06T12:19:02;4.97;;;0.70;;
32872;SDS011;19224;52.462;16.898;2022-08-06T12:21:34;6.00;;;0.80;;
32872;SDS011;19224;52.462;16.898;2022-08-06T12:24:06;0.70;;;0.45;;
32872;SDS011;19224;52.462;16.898;2022-08-06T12:26:37;1.45;;;0.47;;
32872;SDS011;19224;52.462;16.898;2022-08-06T12:29:07;0.47;;;0.47;;
32872;SDS011;19224;52.462;16.898;2022-08-06T12:31:38;5.22;;;0.72;;
32872;SDS011;19224;52.462;16.898;2022-08-06T12:34:08;1.77;;;0.57;;
32872;SDS011;19224;52.462;16.898;2022-08-06T12:36:41;0.40;;;0.40;;
32872;SDS011;19224;52.462;16.898;2022-08-06T12:39:12;1.75;;;1.07;;
32872;SDS011;19224;52.462;16.898;2022-08-06T12:41:41;0.60;;;0.55;;
32872;SDS011;19224;52.462;16.898;2022-08-06T12:44:13;0.65;;;0.30;;
32872;SDS011;19224;52.462;16.898;2022-08-06T12:46:43;2.02;;;0.40;;
32872;SDS011;19224;52.462;16.898;2022-08-06T12:49:14;6.83;;;2.75;;
32872;SDS011;19224;52.462;16.898;2022-08-06T12:51:44;1.22;;;0.60;;
32872;SDS011;19224;52.462;16.898;2022-08-06T12:54:14;0.45;;;0.40;;
32872;SDS011;19224;52.462;16.898;2022-08-06T12:56:44;1.82;;;0.40;;
32872;SDS011;19224;52.462;16.898;2022-08-06T12:59:14;0.88;;;0.47;;
32872;SDS011;19224;52.462;16.898;2022-08-06T13:01:45;4.15;;;0.50;;
32872;SDS011;19224;52.462;16.898;2022-08-06T13:04:15;1.35;;;0.40;;
32872;SDS011;19224;52.462;16.898;2022-08-06T13:06:47;1.27;;;0.50;;
32872;SDS011;19224;52.462;16.898;2022-08-06T13:09:26;1.98;;;0.80;;
32872;SDS011;19224;52.462;16.898;2022-08-06T13:14:50;1.10;;;0.50;;
32872;SDS011;19224;52.462;16.898;2022-08-06T13:17:27;1.90;;;0.90;;
32872;SDS011;19224;52.462;16.898;2022-08-06T13:19:57;0.78;;;0.50;;
32872;SDS011;19224;52.462;16.898;2022-08-06T13:22:27;1.22;;;0.50;;
32872;SDS011;19224;52.462;16.898;2022-08-06T13:25:10;2.75;;;0.50;;
32872;SDS011;19224;52.462;16.898;2022-08-06T13:27:44;2.10;;;0.57;;
32872;SDS011;19224;52.462;16.898;2022-08-06T13:30:14;1.20;;;0.55;;
32872;SDS011;19224;52.462;16.898;2022-08-06T13:32:46;0.57;;;0.57;;
32872;SDS011;19224;52.462;16.898;2022-08-06T13:35:16;2.58;;;0.60;;
32872;SDS011;19224;52.462;16.898;2022-08-06T13:37:50;2.00;;;0.55;;
32872;SDS011;19224;52.462;16.898;2022-08-06T13:40:34;1.30;;;0.40;;
32872;SDS011;19224;52.462;16.898;2022-08-06T13:46:13;1.82;;;0.70;;
32872;SDS011;19224;52.462;16.898;2022-08-06T13:48:48;0.40;;;0.40;;
32872;SDS011;19224;52.462;16.898;2022-08-06T13:51:21;1.62;;;0.70;;
32872;SDS011;19224;52.462;16.898;2022-08-06T13:53:52;4.12;;;1.07;;
32872;SDS011;19224;52.462;16.898;2022-08-06T13:56:23;2.22;;;0.80;;
32872;SDS011;19224;52.462;16.898;2022-08-06T13:58:54;3.35;;;0.60;;
32872;SDS011;19224;52.462;16.898;2022-08-06T14:01:27;1.50;;;0.70;;
32872;SDS011;19224;52.462;16.898;2022-08-06T14:03:58;0.90;;;0.57;;
32872;SDS011;19224;52.462;16.898;2022-08-06T14:06:28;0.72;;;0.30;;
32872;SDS011;19224;52.462;16.898;2022-08-06T14:08:58;1.00;;;0.33;;
32872;SDS011;19224;52.462;16.898;2022-08-06T14:11:28;4.67;;;0.40;;
32872;SDS011;19224;52.462;16.898;2022-08-06T14:13:58;1.82;;;0.37;;
32872;SDS011;19224;52.462;16.898;2022-08-06T14:16:28;2.33;;;0.60;;
32872;SDS011;19224;52.462;16.898;2022-08-06T14:18:58;2.17;;;0.35;;
32872;SDS011;19224;52.462;16.898;2022-08-06T14:21:28;0.33;;;0.33;;
32872;SDS011;19224;52.462;16.898;2022-08-06T14:23:58;1.50;;;0.80;;
32872;SDS011;19224;52.462;16.898;2022-08-06T14:26:28;4.55;;;2.80;;
32872;SDS011;19224;52.462;16.898;2022-08-06T14:28:58;1.98;;;0.50;;
32872;SDS011;19224;52.462;16.898;2022-08-06T14:31:31;2.67;;;0.53;;
32872;SDS011;19224;52.462;16.898;2022-08-06T14:34:01;3.15;;;0.60;;
32872;SDS011;19224;52.462;16.898;2022-08-06T14:36:31;1.12;;;0.40;;
32872;SDS011;19224;52.462;16.898;2022-08-06T14:39:02;2.02;;;0.40;;
32872;SDS011;19224;52.462;16.898;2022-08-06T14:41:33;0.95;;;0.30;;
32872;SDS011;19224;52.462;16.898;2022-08-06T14:44:20;1.10;;;0.45;;
32872;SDS011;19224;52.462;16.898;2022-08-06T14:47:09;0.40;;;0.30;;
32872;SDS011;19224;52.462;16.898;2022-08-06T14:49:39;0.45;;;0.30;;
32872;SDS011;19224;52.462;16.898;2022-08-06T14:52:09;1.40;;;0.30;;
32872;SDS011;19224;52.462;16.898;2022-08-06T14:54:40;0.40;;;0.30;;
32872;SDS011;19224;52.462;16.898;2022-08-06T14:57:10;0.90;;;0.40;;
32872;SDS011;19224;52.462;16.898;2022-08-06T14:59:42;7.78;;;3.83;;
32872;SDS011;19224;52.462;16.898;2022-08-06T15:02:13;1.75;;;0.80;;
32872;SDS011;19224;52.462;16.898;2022-08-06T15:04:44;2.25;;;0.60;;
32872;SDS011;19224;52.462;16.898;2022-08-06T15:07:14;1.25;;;0.40;;
32872;SDS011;19224;52.462;16.898;2022-08-06T15:09:45;0.98;;;0.40;;
32872;SDS011;19224;52.462;16.898;2022-08-06T15:12:15;2.17;;;0.45;;
32872;SDS011;19224;52.462;16.898;2022-08-06T15:14:46;3.60;;;0.50;;
32872;SDS011;19224;52.462;16.898;2022-08-06T15:17:17;0.30;;;0.30;;
32872;SDS011;19224;52.462;16.898;2022-08-06T15:19:47;0.78;;;0.35;;
32872;SDS011;19224;52.462;16.898;2022-08-06T15:22:20;2.92;;;0.80;;
32872;SDS011;19224;52.462;16.898;2022-08-06T15:24:50;1.75;;;0.50;;
32872;SDS011;19224;52.462;16.898;2022-08-06T15:27:20;0.65;;;0.30;;
32872;SDS011;19224;52.462;16.898;2022-08-06T15:29:50;1.47;;;0.30;;
32872;SDS011;19224;52.462;16.898;2022-08-06T15:32:21;1.07;;;0.40;;
32872;SDS011;19224;52.462;16.898;2022-08-06T15:34:51;1.42;;;0.25;;
32872;SDS011;19224;52.462;16.898;2022-08-06T15:37:21;0.40;;;0.20;;
32872;SDS011;19224;52.462;16.898;2022-08-06T15:39:51;1.35;;;0.42;;
32872;SDS011;19224;52.462;16.898;2022-08-06T15:42:21;0.60;;;0.30;;
32872;SDS011;19224;52.462;16.898;2022-08-06T15:44:52;3.72;;;0.40;;
32872;SDS011;19224;52.462;16.898;2022-08-06T15:47:22;0.68;;;0.30;;
32872;SDS011;19224;52.462;16.898;2022-08-06T15:49:53;3.20;;;0.55;;
32872;SDS011;19224;52.462;16.898;2022-08-06T15:52:23;2.08;;;0.40;;
32872;SDS011;19224;52.462;16.898;2022-08-06T15:54:53;0.90;;;0.30;;
32872;SDS011;19224;52.462;16.898;2022-08-06T15:57:23;1.85;;;0.40;;
32872;SDS011;19224;52.462;16.898;2022-08-06T15:59:53;3.00;;;0.70;;
32872;SDS011;19224;52.462;16.898;2022-08-06T16:02:23;1.70;;;0.40;;
32872;SDS011;19224;52.462;16.898;2022-08-06T16:04:54;0.72;;;0.40;;
32872;SDS011;19224;52.462;16.898;2022-08-06T16:07:24;5.42;;;0.45;;